Time,TemperatureF,DewpointF,PressureIn,WindDirection,WindDirectionDegrees,WindSpeedMPH,WindSpeedGustMPH,Humidity,HourlyPrecipIn,Conditions,Clouds,dailyrainin,SoftwareType,DateUTC
2014-01-25 00:01:00,34.9,33.9,30.40,SSW,195,2.0,2.0,96,0.00,,,0.00,WeatherCatV1.24B11,2014-01-25 08:01:00,
2014-01-25 00:06:00,34.8,33.8,30.40,SW,226,0.0,0.0,96,0.00,,,0.00,WeatherCatV1.24B11,2014-01-25 08:06:00,
2014-01-25 00:11:00,34.4,33.4,30.39,NNE,13,1.0,2.0,96,0.00,,,0.00,WeatherCatV1.24B11,2014-01-25 08:11:00,
2014-01-25 00:16:00,34.6,33.8,30.39,NNE,13,0.0,1.0,97,0.00,,,0.00,WeatherCatV1.24B11,2014-01-25 08:16:00,
2014-01-25 00:21:00,34.7,33.9,30.39,NNE,13,0.0,1.0,97,0.00,,,0.00,WeatherCatV1.24B11,2014-01-25 08:21:00,
2014-01-25 00:26:00,34.2,33.2,30.40,WSW,249,2.0,2.0,96,0.00,,,0.00,WeatherCatV1.24B11,2014-01-25 08:26:00,
2014-01-25 00:31:00,33.7,32.7,30.40,WSW,253,0.0,0.0,96,0.00,,,0.00,WeatherCatV1.24B11,2014-01-25 08:31:00,
2014-01-25 00:36:00,33.8,33.0,30.40,SE,139,0.0,0.0,97,0.00,,,0.00,WeatherCatV1.24B11,2014-01-25 08:36:00,
2014-01-25 00:41:00,33.5,32.5,30.40,SW,214,0.0,0.0,96,0.00,,,0.00,WeatherCatV1.24B11,2014-01-25 08:41:00,
2014-01-25 00:46:00,33.4,32.6,30.40,SW,214,0.0,0.0,97,0.00,,,0.00,WeatherCatV1.24B11,2014-01-25 08:46:00,
2014-01-25 00:51:00,33.6,32.8,30.40,SW,214,0.0,0.0,97,0.00,,,0.00,WeatherCatV1.24B11,2014-01-25 08:51:00,
2014-01-25 00:56:00,33.9,33.1,30.40,SW,214,0.0,1.0,97,0.00,,,0.00,WeatherCatV1.24B11,2014-01-25 08:56:00,
2014-01-25 01:01:00,34.7,34.2,30.40,East,85,1.0,2.0,98,0.00,,,0.00,WeatherCatV1.24B11,2014-01-25 09:01:00,
2014-01-25 01:06:00,34.5,34.0,30.40,East,85,1.0,1.0,98,0.00,,,0.00,WeatherCatV1.24B11,2014-01-25 09:06:00,
2014-01-25 01:11:00,34.3,33.5,30.40,East,85,1.0,1.0,97,0.00,,,0.00,WeatherCatV1.24B11,2014-01-25 09:11:00,
2014-01-25 01:16:00,34.7,34.2,30.40,NW,322,0.0,0.0,98,0.00,,,0.00,WeatherCatV1.24B11,2014-01-25 09:16:00,
2014-01-25 01:21:00,35.0,34.5,30.39,NW,322,0.0,0.0,98,0.00,,,0.00,WeatherCatV1.24B11,2014-01-25 09:21:00,
2014-01-25 01:26:00,34.6,34.1,30.39,NW,322,0.0,0.0,98,0.00,,,0.00,WeatherCatV1.24B11,2014-01-25 09:26:00,
2014-01-25 01:31:00,34.5,34.0,30.39,NW,322,0.0,0.0,98,0.00,,,0.00,WeatherCatV1.24B11,2014-01-25 09:31:00,
2014-01-25 01:36:00,34.0,33.2,30.39,NE,53,0.0,1.0,97,0.00,,,0.00,WeatherCatV1.24B11,2014-01-25 09:36:00,
2014-01-25 01:41:00,33.5,32.7,30.40,SSW,205,1.0,2.0,97,0.00,,,0.00,WeatherCatV1.24B11,2014-01-25 09:41:00,
2014-01-25 01:46:00,33.4,32.6,30.40,SSW,205,0.0,0.0,97,0.00,,,0.00,WeatherCatV1.24B11,2014-01-25 09:46:00,
2014-01-25 01:51:00,32.9,32.1,30.39,NNE,31,1.0,1.0,97,0.00,,,0.00,WeatherCatV1.24B11,2014-01-25 09:51:00,
2014-01-25 01:56:00,32.7,31.9,30.39,NNE,32,0.0,1.0,97,0.00,,,0.00,WeatherCatV1.24B11,2014-01-25 09:56:00,
2014-01-25 02:01:00,32.7,31.9,30.39,NNE,32,0.0,0.0,97,0.00,,,0.00,WeatherCatV1.24B11,2014-01-25 10:01:00,
2014-01-25 02:06:00,32.8,32.3,30.40,NW,312,1.0,1.0,98,0.00,,,0.00,WeatherCatV1.24B11,2014-01-25 10:06:00,
2014-01-25 02:11:00,33.2,32.7,30.40,NW,308,0.0,1.0,98,0.00,,,0.00,WeatherCatV1.24B11,2014-01-25 10:11:00,
2014-01-25 02:16:00,33.5,33.0,30.40,NNE,32,1.0,1.0,98,0.00,,,0.00,WeatherCatV1.24B11,2014-01-25 10:16:00,
2014-01-25 02:21:00,34.0,33.5,30.40,NNE,32,0.0,0.0,98,0.00,,,0.00,WeatherCatV1.24B11,2014-01-25 10:21:00,
2014-01-25 02:26:00,34.1,33.6,30.40,NNE,32,2.0,2.0,98,0.00,,,0.00,WeatherCatV1.24B11,2014-01-25 10:26:00,
2014-01-25 02:31:00,33.5,33.0,30.40,NE,39,2.0,2.0,98,0.00,,,0.00,WeatherCatV1.24B11,2014-01-25 10:31:00,
2014-01-25 02:36:00,33.6,33.1,30.40,North,354,0.0,1.0,98,0.00,,,0.00,WeatherCatV1.24B11,2014-01-25 10:36:00,
2014-01-25 02:41:00,33.5,33.0,30.41,SW,226,1.0,3.0,98,0.00,,,0.00,WeatherCatV1.24B11,2014-01-25 10:41:00,
2014-01-25 02:46:00,33.3,32.8,30.40,SW,226,0.0,0.0,98,0.00,,,0.00,WeatherCatV1.24B11,2014-01-25 10:46:00,
2014-01-25 02:51:00,33.3,32.8,30.41,SW,226,0.0,1.0,98,0.00,,,0.00,WeatherCatV1.24B11,2014-01-25 10:51:00,
2014-01-25 02:56:00,33.3,32.8,30.41,SE,131,0.0,1.0,98,0.00,,,0.00,WeatherCatV1.24B11,2014-01-25 10:56:00,
2014-01-25 03:01:00,32.8,32.3,30.41,WSW,240,2.0,2.0,98,0.00,,,0.00,WeatherCatV1.24B11,2014-01-25 11:01:00,
2014-01-25 03:06:00,31.9,31.1,30.42,West,263,0.0,1.0,97,0.00,,,0.00,WeatherCatV1.24B11,2014-01-25 11:06:00,
2014-01-25 03:11:00,31.2,30.5,30.42,WSW,243,3.0,3.0,97,0.00,,,0.00,WeatherCatV1.24B11,2014-01-25 11:11:00,
2014-01-25 03:16:00,30.6,29.9,30.42,WSW,240,2.0,2.0,97,0.00,,,0.00,WeatherCatV1.24B11,2014-01-25 11:16:00,
2014-01-25 03:21:00,30.4,29.6,30.42,SW,228,0.0,2.0,97,0.00,,,0.00,WeatherCatV1.24B11,2014-01-25 11:21:00,
2014-01-25 03:26:00,30.5,30.0,30.42,SW,228,0.0,1.0,98,0.00,,,0.00,WeatherCatV1.24B11,2014-01-25 11:26:00,
2014-01-25 03:31:00,30.9,30.4,30.42,SE,142,0.0,1.0,98,0.00,,,0.00,WeatherCatV1.24B11,2014-01-25 11:31:00,
2014-01-25 03:36:00,31.2,30.7,30.42,NE,54,3.0,4.0,98,0.00,,,0.00,WeatherCatV1.24B11,2014-01-25 11:36:00,
2014-01-25 03:41:00,31.0,30.5,30.42,NE,51,3.0,3.0,98,0.00,,,0.00,WeatherCatV1.24B11,2014-01-25 11:41:00,
2014-01-25 03:46:00,31.0,30.5,30.42,NE,44,2.0,3.0,98,0.00,,,0.00,WeatherCatV1.24B11,2014-01-25 11:46:00,
2014-01-25 03:51:00,31.2,30.7,30.42,NE,37,1.0,1.0,98,0.00,,,0.00,WeatherCatV1.24B11,2014-01-25 11:51:00,
2014-01-25 03:56:00,31.3,30.8,30.42,East,93,0.0,1.0,98,0.00,,,0.00,WeatherCatV1.24B11,2014-01-25 11:56:00,
2014-01-25 04:01:00,32.3,31.8,30.42,ESE,102,1.0,2.0,98,0.00,,,0.00,WeatherCatV1.24B11,2014-01-25 12:01:00,
2014-01-25 04:06:00,33.0,32.5,30.42,East,91,1.0,2.0,98,0.00,,,0.00,WeatherCatV1.24B11,2014-01-25 12:06:00,
2014-01-25 04:11:00,33.1,32.6,30.42,SE,127,0.0,1.0,98,0.00,,,0.00,WeatherCatV1.24B11,2014-01-25 12:11:00,
2014-01-25 04:16:00,33.2,32.7,30.42,NE,49,2.0,3.0,98,0.00,,,0.00,WeatherCatV1.24B11,2014-01-25 12:16:00,
2014-01-25 04:21:00,33.7,33.5,30.41,ENE,70,0.0,1.0,99,0.00,,,0.00,WeatherCatV1.24B11,2014-01-25 12:21:00,
2014-01-25 04:26:00,34.0,33.8,30.41,SE,139,0.0,1.0,99,0.00,,,0.00,WeatherCatV1.24B11,2014-01-25 12:26:00,
2014-01-25 04:31:00,34.1,33.8,30.41,SE,136,1.0,1.0,99,0.00,,,0.00,WeatherCatV1.24B11,2014-01-25 12:31:00,
2014-01-25 04:36:00,34.4,34.2,30.41,SE,136,0.0,0.0,99,0.00,,,0.00,WeatherCatV1.24B11,2014-01-25 12:36:00,
2014-01-25 04:41:00,34.0,33.8,30.42,SE,134,1.0,1.0,99,0.00,,,0.00,WeatherCatV1.24B11,2014-01-25 12:41:00,
2014-01-25 04:46:00,34.0,33.8,30.42,North,11,0.0,1.0,99,0.00,,,0.00,WeatherCatV1.24B11,2014-01-25 12:46:00,
2014-01-25 04:51:00,34.0,33.8,30.42,North,11,0.0,0.0,99,0.00,,,0.00,WeatherCatV1.24B11,2014-01-25 12:51:00,
2014-01-25 04:56:00,34.3,34.0,30.42,NNE,12,0.0,0.0,99,0.00,,,0.00,WeatherCatV1.24B11,2014-01-25 12:56:00,
2014-01-25 05:01:00,34.3,34.0,30.42,NE,43,1.0,2.0,99,0.00,,,0.00,WeatherCatV1.24B11,2014-01-25 13:01:00,
2014-01-25 05:06:00,34.0,33.8,30.41,NE,43,1.0,1.0,99,0.00,,,0.00,WeatherCatV1.24B11,2014-01-25 13:06:00,
2014-01-25 05:11:00,33.9,33.7,30.41,NE,43,1.0,2.0,99,0.00,,,0.00,WeatherCatV1.24B11,2014-01-25 13:11:00,
2014-01-25 05:16:00,34.2,34.0,30.42,NE,43,0.0,1.0,99,0.00,,,0.00,WeatherCatV1.24B11,2014-01-25 13:16:00,
2014-01-25 05:21:00,35.1,34.8,30.41,NNE,32,2.0,2.0,99,0.00,,,0.00,WeatherCatV1.24B11,2014-01-25 13:21:00,
2014-01-25 05:26:00,35.6,35.3,30.41,NE,44,2.0,2.0,99,0.00,,,0.00,WeatherCatV1.24B11,2014-01-25 13:26:00,
2014-01-25 05:31:00,35.8,35.5,30.42,NE,43,0.0,0.0,99,0.00,,,0.00,WeatherCatV1.24B11,2014-01-25 13:31:00,
2014-01-25 05:36:00,35.6,35.3,30.42,NE,44,0.0,0.0,99,0.00,,,0.00,WeatherCatV1.24B11,2014-01-25 13:36:00,
2014-01-25 05:41:00,35.8,35.5,30.42,NE,44,1.0,2.0,99,0.00,,,0.00,WeatherCatV1.24B11,2014-01-25 13:41:00,
2014-01-25 05:46:00,35.9,35.7,30.42,NE,44,2.0,2.0,99,0.00,,,0.00,WeatherCatV1.24B11,2014-01-25 13:46:00,
2014-01-25 05:51:00,36.2,36.0,30.42,NE,43,1.0,2.0,99,0.00,,,0.00,WeatherCatV1.24B11,2014-01-25 13:51:00,
2014-01-25 05:56:00,36.4,36.2,30.42,NE,44,1.0,2.0,99,0.00,,,0.00,WeatherCatV1.24B11,2014-01-25 13:56:00,
2014-01-25 06:01:00,36.5,36.2,30.42,NE,44,2.0,2.0,99,0.00,,,0.00,WeatherCatV1.24B11,2014-01-25 14:01:00,
2014-01-25 06:06:00,36.4,36.2,30.41,ENE,57,3.0,3.0,99,0.00,,,0.00,WeatherCatV1.24B11,2014-01-25 14:06:00,
2014-01-25 06:11:00,36.1,35.6,30.42,NE,56,2.0,2.0,98,0.00,,,0.00,WeatherCatV1.24B11,2014-01-25 14:11:00,
2014-01-25 06:16:00,35.9,35.4,30.41,NE,54,2.0,3.0,98,0.00,,,0.00,WeatherCatV1.24B11,2014-01-25 14:16:00,
2014-01-25 06:21:00,36.0,35.0,30.41,NE,34,3.0,4.0,96,0.00,,,0.00,WeatherCatV1.24B11,2014-01-25 14:21:00,
2014-01-25 06:26:00,36.1,34.3,30.41,NE,55,2.0,4.0,93,0.00,,,0.00,WeatherCatV1.24B11,2014-01-25 14:26:00,
2014-01-25 06:31:00,36.8,33.9,30.41,ENE,60,3.0,6.0,89,0.00,,,0.00,WeatherCatV1.24B11,2014-01-25 14:31:00,
2014-01-25 06:36:00,38.5,33.2,30.41,ENE,76,4.0,4.0,81,0.00,,,0.00,WeatherCatV1.24B11,2014-01-25 14:36:00,
2014-01-25 06:41:00,39.3,32.7,30.41,ENE,67,1.0,2.0,77,0.00,,,0.00,WeatherCatV1.24B11,2014-01-25 14:41:00,
2014-01-25 06:46:00,39.8,31.9,30.41,ESE,107,1.0,2.0,73,0.00,,,0.00,WeatherCatV1.24B11,2014-01-25 14:46:00,
2014-01-25 06:51:00,40.2,31.6,30.41,ESE,102,0.0,1.0,71,0.00,,,0.00,WeatherCatV1.24B11,2014-01-25 14:51:00,
2014-01-25 06:56:00,40.1,31.5,30.41,ESE,102,0.0,0.0,71,0.00,,,0.00,WeatherCatV1.24B11,2014-01-25 14:56:00,
2014-01-25 07:01:00,38.9,32.0,30.42,WNW,297,1.0,1.0,76,0.00,,,0.00,WeatherCatV1.24B11,2014-01-25 15:01:00,
2014-01-25 07:06:00,36.9,31.6,30.42,West,260,1.0,2.0,81,0.00,,,0.00,WeatherCatV1.24B11,2014-01-25 15:06:00,
2014-01-25 07:11:00,35.9,31.8,30.42,West,274,1.0,1.0,85,0.00,,,0.00,WeatherCatV1.24B11,2014-01-25 15:11:00,
2014-01-25 07:16:00,35.5,31.7,30.42,WNW,287,0.0,1.0,86,0.00,,,0.00,WeatherCatV1.24B11,2014-01-25 15:16:00,
2014-01-25 07:21:00,35.3,31.5,30.42,WNW,287,0.0,0.0,86,0.00,,,0.00,WeatherCatV1.24B11,2014-01-25 15:21:00,
2014-01-25 07:26:00,35.1,31.3,30.42,WNW,287,0.0,0.0,86,0.00,,,0.00,WeatherCatV1.24B11,2014-01-25 15:26:00,
2014-01-25 07:31:00,35.2,31.4,30.42,WNW,287,1.0,1.0,86,0.00,,,0.00,WeatherCatV1.24B11,2014-01-25 15:31:00,
2014-01-25 07:36:00,35.5,31.1,30.42,NE,49,3.0,3.0,84,0.00,,,0.00,WeatherCatV1.24B11,2014-01-25 15:36:00,
2014-01-25 07:41:00,34.6,30.9,30.42,NE,46,4.0,4.0,86,0.00,,,0.00,WeatherCatV1.24B11,2014-01-25 15:41:00,
2014-01-25 07:46:00,33.9,30.7,30.42,NE,41,2.0,4.0,88,0.00,,,0.00,WeatherCatV1.24B11,2014-01-25 15:46:00,
2014-01-25 07:51:00,33.8,30.9,30.42,NE,46,2.0,2.0,89,0.00,,,0.00,WeatherCatV1.24B11,2014-01-25 15:51:00,
2014-01-25 07:56:00,34.4,31.2,30.42,NE,39,2.0,3.0,88,0.00,,,0.00,WeatherCatV1.24B11,2014-01-25 15:56:00,
2014-01-25 08:01:00,35.4,30.8,30.42,NE,54,2.0,2.0,83,0.00,,,0.00,WeatherCatV1.24B11,2014-01-25 16:01:00,
2014-01-25 08:06:00,37.3,30.4,30.42,ENE,59,2.0,3.0,76,0.00,,,0.00,WeatherCatV1.24B11,2014-01-25 16:06:00,
2014-01-25 08:11:00,38.6,30.0,30.42,ESE,104,2.0,2.0,71,0.00,,,0.00,WeatherCatV1.24B11,2014-01-25 16:11:00,
2014-01-25 08:16:00,39.6,30.3,30.42,East,79,2.0,4.0,69,0.00,,,0.00,WeatherCatV1.24B11,2014-01-25 16:16:00,
2014-01-25 08:21:00,40.3,29.9,30.42,ENE,78,6.0,7.0,66,0.00,,,0.00,WeatherCatV1.24B11,2014-01-25 16:21:00,
2014-01-25 08:26:00,40.4,30.3,30.42,ENE,64,3.0,5.0,67,0.00,,,0.00,WeatherCatV1.24B11,2014-01-25 16:26:00,
2014-01-25 08:31:00,40.6,30.1,30.42,East,96,3.0,4.0,66,0.00,,,0.00,WeatherCatV1.24B11,2014-01-25 16:31:00,
2014-01-25 08:36:00,40.4,30.0,30.42,East,91,3.0,5.0,66,0.00,,,0.00,WeatherCatV1.24B11,2014-01-25 16:36:00,
2014-01-25 08:41:00,40.7,30.2,30.42,NE,56,2.0,3.0,66,0.00,,,0.01,WeatherCatV1.24B11,2014-01-25 16:41:00,
2014-01-25 08:46:00,41.2,30.3,30.42,ESE,121,0.0,2.0,65,0.00,,,0.01,WeatherCatV1.24B11,2014-01-25 16:46:00,
2014-01-25 08:51:00,41.7,30.8,30.43,SE,144,1.0,1.0,65,0.00,,,0.01,WeatherCatV1.24B11,2014-01-25 16:51:00,
2014-01-25 08:56:00,42.4,30.3,30.43,ESE,104,1.0,2.0,62,0.00,,,0.01,WeatherCatV1.24B11,2014-01-25 16:56:00,
2014-01-25 09:01:00,42.5,30.8,30.43,East,95,1.0,2.0,63,0.00,,,0.01,WeatherCatV1.24B11,2014-01-25 17:01:00,
2014-01-25 09:06:00,42.5,31.2,30.43,East,94,1.0,1.0,64,0.00,,,0.01,WeatherCatV1.24B11,2014-01-25 17:06:00,
2014-01-25 09:11:00,42.2,31.3,30.43,NNE,27,0.0,2.0,65,0.00,,,0.01,WeatherCatV1.24B11,2014-01-25 17:11:00,
2014-01-25 09:16:00,40.1,33.5,30.44,WSW,246,6.0,6.0,77,0.00,,,0.01,WeatherCatV1.24B11,2014-01-25 17:16:00,
2014-01-25 09:21:00,38.1,33.1,30.44,WSW,249,3.0,4.0,82,0.00,,,0.01,WeatherCatV1.24B11,2014-01-25 17:21:00,
2014-01-25 09:26:00,37.3,33.5,30.44,WSW,246,2.0,2.0,86,0.00,,,0.01,WeatherCatV1.24B11,2014-01-25 17:26:00,
2014-01-25 09:31:00,37.1,33.6,30.44,WSW,246,0.0,0.0,87,0.00,,,0.01,WeatherCatV1.24B11,2014-01-25 17:31:00,
2014-01-25 09:36:00,37.5,34.6,30.44,SW,236,3.0,4.0,89,0.00,,,0.01,WeatherCatV1.24B11,2014-01-25 17:36:00,
2014-01-25 09:41:00,37.4,34.5,30.45,SW,214,4.0,8.0,89,0.00,,,0.01,WeatherCatV1.24B11,2014-01-25 17:41:00,
2014-01-25 09:46:00,37.2,34.5,30.45,SW,219,6.0,6.0,90,0.00,,,0.01,WeatherCatV1.24B11,2014-01-25 17:46:00,
2014-01-25 10:00:00,36.5,34.1,30.45,West,273,2.0,3.0,91,0.00,,,0.01,WeatherCatV1.24B11,2014-01-25 18:00:00,
2014-01-25 10:05:00,36.6,34.5,30.45,WSW,256,0.0,2.0,92,0.00,,,0.01,WeatherCatV1.24B11,2014-01-25 18:05:00,
2014-01-25 10:10:00,37.2,34.8,30.45,WSW,257,1.0,3.0,91,0.00,,,0.01,WeatherCatV1.24B11,2014-01-25 18:10:00,
2014-01-25 10:15:00,37.4,34.7,30.45,SW,235,4.0,5.0,90,0.00,,,0.01,WeatherCatV1.24B11,2014-01-25 18:15:00,
2014-01-25 10:20:00,37.3,34.9,30.45,SW,223,3.0,4.0,91,0.00,,,0.01,WeatherCatV1.24B11,2014-01-25 18:20:00,
2014-01-25 10:25:00,37.5,35.1,30.45,SW,222,2.0,4.0,91,0.00,,,0.01,WeatherCatV1.24B11,2014-01-25 18:25:00,
2014-01-25 10:30:00,37.7,35.3,30.45,SSW,211,2.0,5.0,91,0.00,,,0.01,WeatherCatV1.24B11,2014-01-25 18:30:00,
2014-01-25 10:35:00,38.0,35.6,30.45,SW,229,4.0,5.0,91,0.00,,,0.01,WeatherCatV1.24B11,2014-01-25 18:35:00,
2014-01-25 10:40:00,38.4,35.7,30.45,WSW,246,3.0,3.0,90,0.00,,,0.01,WeatherCatV1.24B11,2014-01-25 18:40:00,
2014-01-25 10:45:00,38.9,36.2,30.45,WSW,243,2.0,5.0,90,0.00,,,0.01,WeatherCatV1.24B11,2014-01-25 18:45:00,
2014-01-25 10:50:00,39.7,36.7,30.45,WSW,253,1.0,2.0,89,0.00,,,0.01,WeatherCatV1.24B11,2014-01-25 18:50:00,
2014-01-25 10:55:00,40.5,36.9,30.45,WNW,287,1.0,1.0,87,0.00,,,0.01,WeatherCatV1.24B11,2014-01-25 18:55:00,
2014-01-25 11:00:00,41.3,36.5,30.45,NW,308,3.0,3.0,83,0.00,,,0.01,WeatherCatV1.24B11,2014-01-25 19:00:00,
2014-01-25 11:05:00,42.0,37.2,30.45,WSW,252,1.0,2.0,83,0.00,,,0.01,WeatherCatV1.24B11,2014-01-25 19:05:00,
2014-01-25 11:10:00,42.5,37.1,30.45,WSW,239,2.0,2.0,81,0.00,,,0.01,WeatherCatV1.24B11,2014-01-25 19:10:00,
2014-01-25 11:15:00,43.0,37.3,30.45,West,262,2.0,3.0,80,0.00,,,0.01,WeatherCatV1.24B11,2014-01-25 19:15:00,
2014-01-25 11:20:00,43.7,38.3,30.44,WSW,242,2.0,2.0,81,0.00,,,0.01,WeatherCatV1.24B11,2014-01-25 19:20:00,
2014-01-25 11:25:00,44.2,38.1,30.44,WSW,252,2.0,2.0,79,0.00,,,0.01,WeatherCatV1.24B11,2014-01-25 19:25:00,
2014-01-25 11:30:00,44.7,38.3,30.44,West,260,1.0,2.0,78,0.00,,,0.01,WeatherCatV1.24B11,2014-01-25 19:30:00,
2014-01-25 11:35:00,44.9,38.5,30.44,WSW,255,0.0,1.0,78,0.00,,,0.01,WeatherCatV1.24B11,2014-01-25 19:35:00,
2014-01-25 11:40:00,45.6,39.1,30.44,WSW,254,2.0,2.0,78,0.00,,,0.01,WeatherCatV1.24B11,2014-01-25 19:40:00,
2014-01-25 11:45:00,46.0,39.5,30.44,SSW,205,0.0,2.0,78,0.00,,,0.01,WeatherCatV1.24B11,2014-01-25 19:45:00,
2014-01-25 11:50:00,46.7,39.9,30.44,SSE,156,2.0,3.0,77,0.00,,,0.01,WeatherCatV1.24B11,2014-01-25 19:50:00,
2014-01-25 11:55:00,46.9,39.4,30.43,SW,233,2.0,2.0,75,0.00,,,0.01,WeatherCatV1.24B11,2014-01-25 19:55:00,
2014-01-25 12:00:00,47.1,39.9,30.43,WSW,246,2.0,2.0,76,0.00,,,0.01,WeatherCatV1.24B11,2014-01-25 20:00:00,
2014-01-25 12:05:00,47.8,39.6,30.43,SE,128,0.0,2.0,73,0.00,,,0.01,WeatherCatV1.24B11,2014-01-25 20:05:00,
2014-01-25 12:10:00,49.0,40.0,30.43,SW,235,2.0,2.0,71,0.00,,,0.01,WeatherCatV1.24B11,2014-01-25 20:10:00,
2014-01-25 12:15:00,48.9,39.2,30.43,SSW,205,1.0,1.0,69,0.00,,,0.01,WeatherCatV1.24B11,2014-01-25 20:15:00,
2014-01-25 12:20:00,49.6,39.1,30.42,SSW,195,1.0,3.0,67,0.00,,,0.01,WeatherCatV1.24B11,2014-01-25 20:20:00,
2014-01-25 12:26:00,49.8,38.5,30.42,WSW,239,0.0,3.0,65,0.00,,,0.01,WeatherCatV1.24B11,2014-01-25 20:26:00,
2014-01-25 12:31:00,50.2,37.3,30.42,SSE,149,2.0,3.0,61,0.00,,,0.01,WeatherCatV1.24B11,2014-01-25 20:31:00,
2014-01-25 12:36:00,50.8,40.2,30.42,SSW,198,2.0,3.0,67,0.00,,,0.01,WeatherCatV1.24B11,2014-01-25 20:36:00,
2014-01-25 12:41:00,50.7,39.4,30.41,SW,214,3.0,4.0,65,0.00,,,0.01,WeatherCatV1.24B11,2014-01-25 20:41:00,
2014-01-25 12:46:00,50.6,39.3,30.41,SSW,211,2.0,3.0,65,0.00,,,0.01,WeatherCatV1.24B11,2014-01-25 20:46:00,
2014-01-25 12:51:00,50.8,39.9,30.41,WSW,243,1.0,2.0,66,0.00,,,0.01,WeatherCatV1.24B11,2014-01-25 20:51:00,
2014-01-25 12:56:00,51.3,38.7,30.41,SSW,207,2.0,3.0,62,0.00,,,0.01,WeatherCatV1.24B11,2014-01-25 20:56:00,
2014-01-25 13:01:00,51.7,38.7,30.41,WSW,255,2.0,3.0,61,0.00,,,0.01,WeatherCatV1.24B11,2014-01-25 21:01:00,
2014-01-25 13:06:00,52.0,39.4,30.41,West,281,1.0,2.0,62,0.00,,,0.01,WeatherCatV1.24B11,2014-01-25 21:06:00,
2014-01-25 13:11:00,52.6,38.7,30.41,SSW,195,1.0,2.0,59,0.00,,,0.01,WeatherCatV1.24B11,2014-01-25 21:11:00,
2014-01-25 13:16:00,53.4,38.1,30.41,SE,134,0.0,1.0,56,0.00,,,0.01,WeatherCatV1.24B11,2014-01-25 21:16:00,
2014-01-25 13:17:00,53.6,38.7,30.41,SW,236,2.0,2.0,57,0.00,,,0.01,WeatherCatV1.24B11,2014-01-25 21:17:00,
2014-01-25 13:22:00,53.6,37.8,30.41,WSW,246,4.0,4.0,55,0.00,,,0.01,WeatherCatV1.24B11,2014-01-25 21:22:00,
2014-01-25 13:27:00,53.2,37.9,30.41,SW,235,0.0,2.0,56,0.00,,,0.01,WeatherCatV1.24B11,2014-01-25 21:27:00,
2014-01-25 13:32:00,53.1,39.2,30.41,WSW,252,2.0,4.0,59,0.00,,,0.01,WeatherCatV1.24B11,2014-01-25 21:32:00,
2014-01-25 13:37:00,53.1,40.8,30.41,WSW,239,0.0,2.0,63,0.00,,,0.01,WeatherCatV1.24B11,2014-01-25 21:37:00,
2014-01-25 13:42:00,53.4,41.9,30.40,WSW,238,4.0,4.0,65,0.00,,,0.01,WeatherCatV1.24B11,2014-01-25 21:42:00,
2014-01-25 13:47:00,53.2,41.3,30.40,WSW,239,0.0,4.0,64,0.00,,,0.01,WeatherCatV1.24B11,2014-01-25 21:47:00,
2014-01-25 13:52:00,53.1,41.7,30.40,WNW,301,2.0,3.0,65,0.00,,,0.01,WeatherCatV1.24B11,2014-01-25 21:52:00,
2014-01-25 13:57:00,53.6,41.7,30.40,WSW,248,2.0,3.0,64,0.00,,,0.01,WeatherCatV1.24B11,2014-01-25 21:57:00,
2014-01-25 14:02:00,53.6,40.5,30.40,WSW,253,1.0,2.0,61,0.00,,,0.01,WeatherCatV1.24B11,2014-01-25 22:02:00,
2014-01-25 14:07:00,53.6,40.9,30.40,SE,125,1.0,4.0,62,0.00,,,0.01,WeatherCatV1.24B11,2014-01-25 22:07:00,
2014-01-25 14:12:00,54.4,40.8,30.39,WSW,238,4.0,5.0,60,0.00,,,0.01,WeatherCatV1.24B11,2014-01-25 22:12:00,
2014-01-25 14:17:00,54.1,41.4,30.39,WNW,297,2.0,3.0,62,0.00,,,0.01,WeatherCatV1.24B11,2014-01-25 22:17:00,
2014-01-25 14:22:00,53.7,40.6,30.39,WNW,291,4.0,5.0,61,0.00,,,0.01,WeatherCatV1.24B11,2014-01-25 22:22:00,
2014-01-25 14:27:00,53.6,41.3,30.39,West,281,3.0,4.0,63,0.00,,,0.01,WeatherCatV1.24B11,2014-01-25 22:27:00,
2014-01-25 14:32:00,53.7,41.0,30.39,WNW,298,0.0,2.0,62,0.00,,,0.01,WeatherCatV1.24B11,2014-01-25 22:32:00,
2014-01-25 14:37:00,53.7,40.6,30.39,WNW,300,2.0,3.0,61,0.00,,,0.01,WeatherCatV1.24B11,2014-01-25 22:37:00,
2014-01-25 14:42:00,53.4,39.9,30.39,WNW,290,2.0,4.0,60,0.00,,,0.01,WeatherCatV1.24B11,2014-01-25 22:42:00,
2014-01-25 14:47:00,53.4,40.3,30.39,West,269,1.0,3.0,61,0.00,,,0.01,WeatherCatV1.24B11,2014-01-25 22:47:00,
2014-01-25 14:52:00,53.9,39.9,30.39,WNW,290,1.0,2.0,59,0.00,,,0.01,WeatherCatV1.24B11,2014-01-25 22:52:00,
2014-01-25 14:57:00,54.0,39.6,30.39,WNW,283,2.0,4.0,58,0.00,,,0.01,WeatherCatV1.24B11,2014-01-25 22:57:00,
2014-01-25 15:02:00,54.0,39.6,30.39,WNW,294,1.0,2.0,58,0.00,,,0.01,WeatherCatV1.24B11,2014-01-25 23:02:00,
2014-01-25 15:07:00,54.0,39.1,30.39,WSW,245,2.0,4.0,57,0.00,,,0.01,WeatherCatV1.24B11,2014-01-25 23:07:00,
2014-01-25 15:12:00,53.7,39.3,30.39,WNW,291,3.0,5.0,58,0.00,,,0.01,WeatherCatV1.24B11,2014-01-25 23:12:00,
2014-01-25 15:17:00,53.7,39.3,30.39,NW,304,4.0,4.0,58,0.00,,,0.01,WeatherCatV1.24B11,2014-01-25 23:17:00,
2014-01-25 15:22:00,53.7,38.8,30.39,West,274,3.0,5.0,57,0.00,,,0.01,WeatherCatV1.24B11,2014-01-25 23:22:00,
2014-01-25 15:27:00,53.3,39.3,30.39,WNW,298,3.0,3.0,59,0.00,,,0.01,WeatherCatV1.24B11,2014-01-25 23:27:00,
2014-01-25 15:32:00,53.1,39.2,30.38,WNW,286,1.0,3.0,59,0.00,,,0.01,WeatherCatV1.24B11,2014-01-25 23:32:00,
2014-01-25 15:37:00,52.9,38.1,30.38,WNW,288,2.0,3.0,57,0.00,,,0.01,WeatherCatV1.24B11,2014-01-25 23:37:00,
2014-01-25 15:42:00,52.9,37.6,30.38,WNW,300,3.0,3.0,56,0.00,,,0.01,WeatherCatV1.24B11,2014-01-25 23:42:00,
2014-01-25 15:47:00,52.8,37.5,30.38,WNW,294,1.0,2.0,56,0.00,,,0.01,WeatherCatV1.24B11,2014-01-25 23:47:00,
2014-01-25 15:52:00,53.0,36.8,30.38,WNW,283,2.0,3.0,54,0.00,,,0.01,WeatherCatV1.24B11,2014-01-25 23:52:00,
2014-01-25 15:57:00,52.7,37.0,30.38,NW,304,2.0,3.0,55,0.00,,,0.01,WeatherCatV1.24B11,2014-01-25 23:57:00,
2014-01-25 16:02:00,53.2,37.0,30.38,WNW,283,1.0,3.0,54,0.00,,,0.01,WeatherCatV1.24B11,2014-01-26 00:02:00,
2014-01-25 16:07:00,53.3,37.1,30.38,West,278,1.0,3.0,54,0.00,,,0.01,WeatherCatV1.24B11,2014-01-26 00:07:00,
2014-01-25 16:12:00,53.2,37.5,30.38,West,274,2.0,3.0,55,0.00,,,0.01,WeatherCatV1.24B11,2014-01-26 00:12:00,
2014-01-25 16:17:00,53.1,37.8,30.38,WNW,294,1.0,2.0,56,0.00,,,0.01,WeatherCatV1.24B11,2014-01-26 00:17:00,
2014-01-25 16:22:00,53.5,38.2,30.38,WNW,295,1.0,3.0,56,0.00,,,0.01,WeatherCatV1.24B11,2014-01-26 00:22:00,
2014-01-25 16:27:00,53.6,38.7,30.38,NW,308,2.0,2.0,57,0.00,,,0.01,WeatherCatV1.24B11,2014-01-26 00:27:00,
2014-01-25 16:32:00,52.8,38.9,30.37,WNW,289,0.0,1.0,59,0.00,,,0.01,WeatherCatV1.24B11,2014-01-26 00:32:00,
2014-01-25 16:37:00,52.4,39.3,30.37,WNW,289,0.0,0.0,61,0.00,,,0.01,WeatherCatV1.24B11,2014-01-26 00:37:00,
2014-01-25 16:42:00,52.6,39.5,30.37,WNW,290,0.0,0.0,61,0.00,,,0.01,WeatherCatV1.24B11,2014-01-26 00:42:00,
2014-01-25 16:47:00,52.1,39.1,30.37,WNW,289,0.0,0.0,61,0.00,,,0.01,WeatherCatV1.24B11,2014-01-26 00:47:00,
2014-01-25 16:52:00,51.3,39.1,30.37,WNW,290,0.0,0.0,63,0.00,,,0.01,WeatherCatV1.24B11,2014-01-26 00:52:00,
2014-01-25 16:57:00,50.4,39.1,30.37,WNW,289,0.0,0.0,65,0.00,,,0.01,WeatherCatV1.24B11,2014-01-26 00:57:00,
2014-01-25 17:02:00,49.5,38.6,30.37,WNW,291,0.0,0.0,66,0.00,,,0.01,WeatherCatV1.24B11,2014-01-26 01:02:00,
2014-01-25 17:07:00,48.7,38.6,30.37,WNW,291,0.0,0.0,68,0.00,,,0.01,WeatherCatV1.24B11,2014-01-26 01:07:00,
2014-01-25 17:12:00,48.0,38.7,30.37,WNW,290,0.0,0.0,70,0.00,,,0.01,WeatherCatV1.24B11,2014-01-26 01:12:00,
2014-01-25 17:17:00,47.5,38.6,30.36,WNW,291,0.0,0.0,71,0.00,,,0.01,WeatherCatV1.24B11,2014-01-26 01:17:00,
2014-01-25 17:22:00,47.1,38.5,30.36,WNW,291,0.0,1.0,72,0.00,,,0.01,WeatherCatV1.24B11,2014-01-26 01:22:00,
2014-01-25 17:27:00,46.7,38.5,30.36,WNW,291,1.0,1.0,73,0.00,,,0.01,WeatherCatV1.24B11,2014-01-26 01:27:00,
2014-01-25 17:32:00,46.2,38.4,30.36,NW,321,1.0,1.0,74,0.00,,,0.01,WeatherCatV1.24B11,2014-01-26 01:32:00,
2014-01-25 17:37:00,45.7,38.2,30.36,NNW,339,0.0,1.0,75,0.00,,,0.01,WeatherCatV1.24B11,2014-01-26 01:37:00,
2014-01-25 17:42:00,45.5,38.0,30.35,NNW,338,1.0,1.0,75,0.00,,,0.01,WeatherCatV1.24B11,2014-01-26 01:42:00,
2014-01-25 17:47:00,45.6,37.8,30.36,NE,34,2.0,2.0,74,0.00,,,0.01,WeatherCatV1.24B11,2014-01-26 01:47:00,
2014-01-25 17:52:00,44.9,37.8,30.35,NE,34,1.0,1.0,76,0.00,,,0.01,WeatherCatV1.24B11,2014-01-26 01:52:00,
2014-01-25 17:57:00,44.5,37.4,30.35,NE,34,1.0,1.0,76,0.00,,,0.01,WeatherCatV1.24B11,2014-01-26 01:57:00,
2014-01-25 18:02:00,44.5,37.4,30.35,NE,34,1.0,1.0,76,0.00,,,0.01,WeatherCatV1.24B11,2014-01-26 02:02:00,
2014-01-25 18:07:00,44.2,37.1,30.35,NE,34,1.0,1.0,76,0.00,,,0.01,WeatherCatV1.24B11,2014-01-26 02:07:00,
2014-01-25 18:12:00,44.3,36.5,30.35,NE,34,0.0,1.0,74,0.00,,,0.01,WeatherCatV1.24B11,2014-01-26 02:12:00,
2014-01-25 18:17:00,44.4,35.6,30.35,NE,34,0.0,0.0,71,0.00,,,0.01,WeatherCatV1.24B11,2014-01-26 02:17:00,
2014-01-25 18:22:00,44.2,35.0,30.35,NE,34,0.0,0.0,70,0.00,,,0.01,WeatherCatV1.24B11,2014-01-26 02:22:00,
2014-01-25 18:27:00,43.9,35.5,30.35,NE,34,0.0,0.0,72,0.00,,,0.01,WeatherCatV1.24B11,2014-01-26 02:27:00,
2014-01-25 18:32:00,43.5,35.1,30.35,NE,34,0.0,0.0,72,0.00,,,0.01,WeatherCatV1.24B11,2014-01-26 02:32:00,
2014-01-25 18:37:00,43.6,35.2,30.35,NE,34,0.0,0.0,72,0.00,,,0.01,WeatherCatV1.24B11,2014-01-26 02:37:00,
2014-01-25 18:42:00,43.5,35.1,30.35,NE,34,0.0,0.0,72,0.00,,,0.01,WeatherCatV1.24B11,2014-01-26 02:42:00,
2014-01-25 18:47:00,43.0,35.0,30.35,NE,34,1.0,2.0,73,0.00,,,0.01,WeatherCatV1.24B11,2014-01-26 02:47:00,
2014-01-25 18:52:00,42.4,34.4,30.34,NNE,28,2.0,2.0,73,0.00,,,0.01,WeatherCatV1.24B11,2014-01-26 02:52:00,
2014-01-25 18:57:00,42.2,34.5,30.34,NNE,33,0.0,1.0,74,0.00,,,0.01,WeatherCatV1.24B11,2014-01-26 02:57:00,
2014-01-25 19:02:00,42.3,34.3,30.34,NNE,33,1.0,1.0,73,0.00,,,0.01,WeatherCatV1.24B11,2014-01-26 03:02:00,
2014-01-25 19:07:00,42.2,34.5,30.35,NNE,33,0.0,1.0,74,0.00,,,0.01,WeatherCatV1.24B11,2014-01-26 03:07:00,
2014-01-25 19:12:00,42.6,34.6,30.35,NNE,33,1.0,1.0,73,0.00,,,0.01,WeatherCatV1.24B11,2014-01-26 03:12:00,
2014-01-25 19:17:00,42.5,34.8,30.35,NNE,33,1.0,1.0,74,0.00,,,0.01,WeatherCatV1.24B11,2014-01-26 03:17:00,
2014-01-25 19:22:00,42.2,34.8,30.35,NNE,33,1.0,1.0,75,0.00,,,0.01,WeatherCatV1.24B11,2014-01-26 03:22:00,
2014-01-25 19:27:00,42.0,35.0,30.35,NNE,33,1.0,1.0,76,0.00,,,0.01,WeatherCatV1.24B11,2014-01-26 03:27:00,
2014-01-25 19:32:00,41.8,34.8,30.35,NNE,33,1.0,1.0,76,0.00,,,0.01,WeatherCatV1.24B11,2014-01-26 03:32:00,
2014-01-25 19:37:00,41.5,34.8,30.35,NNE,33,2.0,2.0,77,0.00,,,0.01,WeatherCatV1.24B11,2014-01-26 03:37:00,
2014-01-25 19:42:00,40.9,34.6,30.35,NNE,33,1.0,2.0,78,0.00,,,0.01,WeatherCatV1.24B11,2014-01-26 03:42:00,
2014-01-25 19:47:00,40.5,34.5,30.35,NNE,33,2.0,2.0,79,0.00,,,0.01,WeatherCatV1.24B11,2014-01-26 03:47:00,
2014-01-25 19:52:00,40.3,34.6,30.35,NNE,33,0.0,0.0,80,0.00,,,0.01,WeatherCatV1.24B11,2014-01-26 03:52:00,
2014-01-25 19:57:00,40.6,35.2,30.35,NNE,33,1.0,1.0,81,0.00,,,0.01,WeatherCatV1.24B11,2014-01-26 03:57:00,
2014-01-25 20:02:00,40.9,35.5,30.34,NNE,33,1.0,1.0,81,0.00,,,0.01,WeatherCatV1.24B11,2014-01-26 04:02:00,
2014-01-25 20:07:00,41.2,35.5,30.34,NNE,33,1.0,2.0,80,0.00,,,0.01,WeatherCatV1.24B11,2014-01-26 04:07:00,
2014-01-25 20:12:00,40.6,34.9,30.34,NNE,32,1.0,2.0,80,0.00,,,0.01,WeatherCatV1.24B11,2014-01-26 04:12:00,
2014-01-25 20:17:00,39.6,34.3,30.34,NE,34,1.0,2.0,81,0.00,,,0.01,WeatherCatV1.24B11,2014-01-26 04:17:00,
2014-01-25 20:22:00,39.1,34.4,30.34,NE,34,1.0,1.0,83,0.00,,,0.01,WeatherCatV1.24B11,2014-01-26 04:22:00,
2014-01-25 20:27:00,39.3,34.9,30.34,NE,34,1.0,1.0,84,0.00,,,0.01,WeatherCatV1.24B11,2014-01-26 04:27:00,
2014-01-25 20:32:00,39.8,35.1,30.34,NE,34,1.0,1.0,83,0.00,,,0.01,WeatherCatV1.24B11,2014-01-26 04:32:00,
2014-01-25 20:37:00,39.9,35.2,30.34,NE,39,1.0,2.0,83,0.00,,,0.01,WeatherCatV1.24B11,2014-01-26 04:37:00,
2014-01-25 20:42:00,39.5,34.8,30.34,NE,39,1.0,2.0,83,0.00,,,0.01,WeatherCatV1.24B11,2014-01-26 04:42:00,
2014-01-25 20:47:00,39.0,34.3,30.33,NE,44,2.0,3.0,83,0.00,,,0.01,WeatherCatV1.24B11,2014-01-26 04:47:00,
2014-01-25 20:52:00,38.9,34.2,30.33,NE,43,0.0,1.0,83,0.00,,,0.01,WeatherCatV1.24B11,2014-01-26 04:52:00,
2014-01-25 20:57:00,38.9,34.2,30.33,NE,43,1.0,1.0,83,0.00,,,0.01,WeatherCatV1.24B11,2014-01-26 04:57:00,
2014-01-25 21:01:00,38.8,34.1,30.33,NE,43,1.0,1.0,83,0.00,,,0.01,WeatherCatV1.24B11,2014-01-26 05:01:00,
2014-01-25 21:06:00,39.1,34.4,30.33,NE,43,1.0,1.0,83,0.00,,,0.01,WeatherCatV1.24B11,2014-01-26 05:06:00,
2014-01-25 21:11:00,39.4,34.4,30.33,NE,43,1.0,1.0,82,0.00,,,0.01,WeatherCatV1.24B11,2014-01-26 05:11:00,
2014-01-25 21:16:00,39.6,34.3,30.33,NE,43,0.0,1.0,81,0.00,,,0.01,WeatherCatV1.24B11,2014-01-26 05:16:00,
2014-01-25 21:21:00,39.8,34.1,30.33,NE,43,1.0,1.0,80,0.00,,,0.01,WeatherCatV1.24B11,2014-01-26 05:21:00,
2014-01-25 21:26:00,39.9,33.9,30.33,NE,44,1.0,1.0,79,0.00,,,0.01,WeatherCatV1.24B11,2014-01-26 05:26:00,
2014-01-25 21:31:00,39.6,34.0,30.33,NE,44,1.0,1.0,80,0.00,,,0.01,WeatherCatV1.24B11,2014-01-26 05:31:00,
2014-01-25 21:36:00,39.9,33.9,30.33,NE,44,2.0,2.0,79,0.00,,,0.01,WeatherCatV1.24B11,2014-01-26 05:36:00,
2014-01-25 21:41:00,39.2,33.6,30.33,NE,56,2.0,3.0,80,0.00,,,0.01,WeatherCatV1.24B11,2014-01-26 05:41:00,
2014-01-25 21:46:00,38.5,33.5,30.33,NE,44,2.0,2.0,82,0.00,,,0.01,WeatherCatV1.24B11,2014-01-26 05:46:00,
2014-01-25 21:51:00,38.2,33.5,30.33,NE,44,0.0,0.0,83,0.00,,,0.01,WeatherCatV1.24B11,2014-01-26 05:51:00,
2014-01-25 21:56:00,39.1,34.1,30.34,NE,44,0.0,0.0,82,0.00,,,0.01,WeatherCatV1.24B11,2014-01-26 05:56:00,
2014-01-25 22:01:00,39.7,34.0,30.33,NE,44,0.0,0.0,80,0.00,,,0.01,WeatherCatV1.24B11,2014-01-26 06:01:00,
2014-01-25 22:06:00,40.4,34.1,30.33,NE,44,0.0,1.0,78,0.00,,,0.01,WeatherCatV1.24B11,2014-01-26 06:06:00,
2014-01-25 22:11:00,40.5,34.2,30.34,NE,44,1.0,1.0,78,0.00,,,0.01,WeatherCatV1.24B11,2014-01-26 06:11:00,
2014-01-25 22:16:00,40.3,34.0,30.34,NE,44,2.0,2.0,78,0.00,,,0.01,WeatherCatV1.24B11,2014-01-26 06:16:00,
2014-01-25 22:21:00,39.6,33.6,30.34,NE,44,1.0,2.0,79,0.00,,,0.01,WeatherCatV1.24B11,2014-01-26 06:21:00,
2014-01-25 22:26:00,38.8,33.2,30.34,NE,44,2.0,2.0,80,0.00,,,0.01,WeatherCatV1.24B11,2014-01-26 06:26:00,
2014-01-25 22:31:00,38.4,33.4,30.34,NE,44,2.0,2.0,82,0.00,,,0.01,WeatherCatV1.24B11,2014-01-26 06:31:00,
2014-01-25 22:36:00,38.4,33.1,30.34,NE,44,2.0,2.0,81,0.00,,,0.01,WeatherCatV1.24B11,2014-01-26 06:36:00,
2014-01-25 22:42:00,38.3,33.0,30.34,NE,44,2.0,2.0,81,0.00,,,0.01,WeatherCatV1.24B11,2014-01-26 06:42:00,
2014-01-25 22:47:00,37.8,32.8,30.33,NE,44,2.0,2.0,82,0.00,,,0.01,WeatherCatV1.24B11,2014-01-26 06:47:00,
2014-01-25 22:52:00,37.8,32.5,30.33,NE,44,2.0,2.0,81,0.00,,,0.01,WeatherCatV1.24B11,2014-01-26 06:52:00,
2014-01-25 22:57:00,37.4,32.4,30.33,NE,41,2.0,3.0,82,0.00,,,0.01,WeatherCatV1.24B11,2014-01-26 06:57:00,
2014-01-25 23:02:00,37.2,32.2,30.33,NE,47,1.0,2.0,82,0.00,,,0.01,WeatherCatV1.24B11,2014-01-26 07:02:00,
2014-01-25 23:07:00,37.0,32.3,30.33,NE,46,1.0,1.0,83,0.00,,,0.01,WeatherCatV1.24B11,2014-01-26 07:07:00,
2014-01-25 23:12:00,37.5,32.5,30.33,NE,47,1.0,1.0,82,0.00,,,0.01,WeatherCatV1.24B11,2014-01-26 07:12:00,
2014-01-25 23:17:00,38.6,32.7,30.33,NE,47,1.0,1.0,79,0.00,,,0.01,WeatherCatV1.24B11,2014-01-26 07:17:00,
2014-01-25 23:22:00,38.9,32.6,30.33,NE,46,2.0,2.0,78,0.00,,,0.01,WeatherCatV1.24B11,2014-01-26 07:22:00,
2014-01-25 23:27:00,38.5,32.6,30.33,NE,43,2.0,2.0,79,0.00,,,0.01,WeatherCatV1.24B11,2014-01-26 07:27:00,
2014-01-25 23:32:00,37.9,32.3,30.33,NE,43,2.0,2.0,80,0.00,,,0.01,WeatherCatV1.24B11,2014-01-26 07:32:00,
2014-01-25 23:37:00,37.9,32.3,30.33,NE,43,2.0,2.0,80,0.00,,,0.01,WeatherCatV1.24B11,2014-01-26 07:37:00,
2014-01-25 23:42:00,38.5,32.9,30.33,NE,43,0.0,1.0,80,0.00,,,0.01,WeatherCatV1.24B11,2014-01-26 07:42:00,
2014-01-25 23:47:00,38.7,32.8,30.33,NE,43,1.0,1.0,79,0.00,,,0.01,WeatherCatV1.24B11,2014-01-26 07:47:00,
2014-01-25 23:52:00,38.4,32.8,30.33,NE,38,1.0,1.0,80,0.00,,,0.01,WeatherCatV1.24B11,2014-01-26 07:52:00,
2014-01-25 23:57:00,38.3,32.4,30.33,NNE,22,0.0,1.0,79,0.00,,,0.01,WeatherCatV1.24B11,2014-01-26 07:57:00,